createdAt,value
2019-05-13T00:02:50.024Z,99.20
2019-05-13T00:07:35.996Z,99.80
2019-05-13T00:12:21.111Z,99.90
2019-05-13T00:17:07.274Z,99.90
2019-05-13T00:21:54.478Z,99.90
2019-05-13T00:26:39.124Z,99.90
2019-05-13T00:31:24.257Z,99.90
2019-05-13T00:36:09.313Z,99.90
2019-05-13T00:40:54.667Z,99.90
2019-05-13T00:45:39.991Z,99.90
2019-05-13T00:50:25.379Z,99.90
2019-05-13T00:55:10.597Z,99.90
2019-05-13T00:59:55.726Z,99.90
2019-05-13T01:04:40.715Z,99.90
2019-05-13T01:09:26.040Z,99.90
2019-05-13T01:14:11.209Z,99.90
2019-05-13T01:18:56.057Z,99.90
2019-05-13T01:23:40.947Z,99.90
2019-05-13T01:28:26.133Z,99.90
2019-05-13T01:33:11.013Z,99.90
2019-05-13T01:37:56.067Z,99.90
2019-05-13T01:42:41.065Z,99.90
2019-05-13T01:47:25.831Z,99.90
2019-05-13T01:52:13.535Z,99.90
2019-05-13T01:56:57.627Z,99.90
2019-05-13T02:01:44.225Z,99.90
2019-05-13T02:06:28.886Z,99.90
2019-05-13T02:11:13.763Z,99.90
2019-05-13T02:15:58.985Z,99.90
2019-05-13T02:20:44.363Z,99.90
2019-05-13T02:25:29.827Z,99.90
2019-05-13T02:30:16.241Z,99.90
2019-05-13T02:35:02.922Z,99.90
2019-05-13T02:39:47.977Z,99.90
2019-05-13T02:44:33.524Z,99.90
2019-05-13T02:49:18.555Z,99.90
2019-05-13T02:54:03.809Z,99.90
2019-05-13T02:58:48.902Z,99.90
2019-05-13T03:03:33.590Z,99.90
2019-05-13T03:08:38.040Z,99.90
2019-05-13T03:13:05.193Z,99.90
2019-05-13T03:18:08.453Z,99.90
2019-05-13T03:22:53.689Z,99.90
2019-05-13T03:27:38.479Z,99.90
2019-05-13T03:32:26.118Z,99.90
2019-05-13T03:37:15.100Z,99.90
2019-05-13T03:41:58.765Z,99.90
2019-05-13T03:46:43.976Z,99.90
2019-05-13T03:51:28.698Z,99.90
2019-05-13T03:56:13.671Z,99.90
2019-05-13T04:00:58.851Z,99.90
2019-05-13T04:05:44.188Z,99.90
2019-05-13T04:10:29.340Z,99.90
2019-05-13T04:15:14.604Z,99.90
2019-05-13T04:20:02.770Z,99.90
2019-05-13T04:24:48.489Z,99.90
2019-05-13T04:29:33.725Z,99.90
2019-05-13T04:34:22.745Z,99.90
2019-05-13T04:39:06.956Z,99.90
2019-05-13T04:43:53.940Z,99.90
2019-05-13T04:48:40.582Z,99.90
2019-05-13T04:53:25.306Z,99.90
2019-05-13T04:58:12.934Z,99.90
2019-05-13T05:03:22.988Z,99.90
2019-05-13T05:08:32.897Z,99.90
2019-05-13T05:13:32.382Z,99.90
2019-05-13T05:19:02.098Z,99.90
2019-05-13T05:24:25.693Z,99.90
2019-05-13T05:29:39.228Z,99.90
2019-05-13T05:34:41.812Z,99.90
2019-05-13T05:39:27.172Z,99.90
2019-05-13T05:44:14.002Z,99.90
2019-05-13T05:49:04.257Z,99.90
2019-05-13T05:53:52.011Z,99.90
2019-05-13T05:58:37.267Z,99.90
2019-05-13T06:03:25.558Z,99.90
2019-05-13T06:08:11.422Z,99.90
2019-05-13T06:12:57.854Z,99.90
2019-05-13T06:17:42.941Z,99.90
2019-05-13T06:22:28.044Z,99.90
2019-05-13T06:27:15.620Z,99.90
2019-05-13T06:32:15.175Z,99.90
2019-05-13T06:36:52.128Z,99.90
2019-05-13T06:41:36.863Z,99.90
2019-05-13T06:46:24.353Z,99.90
2019-05-13T06:51:11.506Z,99.90
2019-05-13T06:55:55.630Z,99.90
2019-05-13T07:00:42.740Z,99.90
2019-05-13T07:05:31.659Z,99.90
2019-05-13T07:10:16.085Z,99.90
2019-05-13T07:15:02.439Z,99.90
2019-05-13T07:19:47.491Z,99.90
2019-05-13T07:24:32.683Z,99.90
2019-05-13T07:29:17.685Z,99.90
2019-05-13T07:34:03.138Z,99.90
2019-05-13T07:38:48.324Z,99.90
2019-05-13T07:43:33.761Z,99.90
2019-05-13T07:48:21.400Z,99.90
2019-05-13T08:23:32.327Z,99.90
2019-05-13T08:28:22.378Z,99.90
2019-05-13T08:33:06.387Z,99.90
2019-05-13T08:37:55.567Z,99.90
2019-05-13T08:42:37.885Z,99.90
2019-05-13T08:47:22.685Z,99.90
2019-05-13T08:52:07.747Z,99.90
2019-05-13T08:56:53.403Z,99.90
2019-05-13T09:01:38.481Z,99.90
2019-05-13T09:06:23.288Z,99.90
2019-05-13T09:11:08.278Z,99.90
2019-05-13T09:15:53.210Z,99.90
2019-05-13T09:20:41.619Z,99.90
2019-05-13T09:25:26.569Z,99.90
2019-05-13T09:30:11.925Z,99.90
2019-05-13T09:34:57.720Z,99.90
2019-05-13T09:39:42.894Z,99.90
2019-05-13T09:44:28.123Z,99.90
2019-05-13T09:49:20.062Z,99.70
2019-05-13T09:54:02.591Z,98.20
2019-05-13T09:58:47.773Z,97.70
2019-05-13T10:03:33.344Z,95.10
2019-05-13T10:08:21.999Z,93.80
2019-05-13T10:13:12.039Z,94.10
2019-05-13T10:17:53.878Z,89.40
2019-05-13T10:22:42.123Z,91.40
2019-05-13T10:27:27.289Z,90.50
2019-05-13T10:32:12.677Z,90.40
2019-05-13T10:37:02.546Z,89.30
2019-05-13T10:41:52.345Z,86.60
2019-05-13T10:46:37.804Z,89.30
2019-05-13T10:51:22.602Z,83.80
2019-05-13T10:56:07.548Z,77.20
2019-05-13T11:00:54.575Z,78.70
2019-05-13T11:05:44.637Z,79.30
2019-05-13T11:10:33.233Z,71.90
2019-05-13T11:15:18.231Z,70.60
2019-05-13T11:20:03.726Z,68.90
2019-05-13T11:24:51.828Z,77.40
2019-05-13T11:29:36.678Z,78.60
2019-05-13T11:34:22.114Z,82.00
2019-05-13T11:39:12.650Z,80.60
2019-05-13T11:44:12.196Z,85.30
2019-05-13T11:48:44.942Z,79.60
2019-05-13T11:53:33.517Z,78.70
2019-05-13T11:58:16.324Z,74.50
2019-05-13T12:03:04.356Z,75.30
2019-05-13T12:07:53.485Z,78.90
2019-05-13T12:12:43.912Z,81.60
2019-05-13T12:17:28.028Z,81.30
2019-05-13T12:22:13.692Z,84.20
2019-05-13T12:26:59.109Z,81.60
2019-05-13T12:31:43.971Z,81.90
2019-05-13T12:36:32.750Z,81.20
2019-05-13T12:41:16.699Z,80.40
2019-05-13T12:46:02.564Z,74.20
2019-05-13T12:50:47.545Z,75.80
2019-05-13T12:55:33.143Z,81.00
2019-05-13T13:00:18.657Z,80.00
2019-05-13T13:05:13.530Z,78.70
2019-05-13T13:09:53.401Z,73.20
2019-05-13T13:14:44.288Z,76.50
2019-05-13T13:19:29.623Z,74.60
2019-05-13T13:24:15.315Z,76.70
2019-05-13T13:29:00.602Z,77.50
2019-05-13T13:33:46.173Z,74.10
2019-05-13T13:38:32.652Z,73.80
2019-05-13T13:43:18.075Z,73.70
2019-05-13T13:48:04.233Z,72.80
2019-05-13T13:52:52.553Z,73.50
2019-05-13T13:57:36.189Z,64.90
2019-05-13T14:02:25.466Z,63.90
2019-05-13T14:07:28.105Z,64.30
2019-05-13T14:12:01.842Z,64.50
2019-05-13T14:16:46.773Z,69.60
2019-05-13T14:21:34.787Z,60.20
2019-05-13T14:26:22.154Z,59.80
2019-05-13T14:31:09.264Z,63.60
2019-05-13T14:35:54.310Z,66.00
2019-05-13T14:40:39.515Z,66.60
2019-05-13T14:45:24.963Z,66.00
2019-05-13T14:50:12.166Z,68.60
2019-05-13T14:54:57.182Z,62.60
2019-05-13T14:59:42.087Z,65.00
2019-05-13T15:04:26.891Z,62.10
2019-05-13T15:09:12.623Z,58.30
2019-05-13T15:13:58.220Z,56.50
2019-05-13T15:18:43.455Z,52.10
2019-05-13T15:23:31.450Z,55.10
2019-05-13T15:28:16.987Z,58.00
2019-05-13T15:33:02.578Z,58.90
2019-05-13T15:37:48.094Z,58.90
2019-05-13T15:42:33.583Z,61.40
2019-05-13T15:47:29.174Z,63.30
2019-05-13T15:52:11.097Z,58.70
2019-05-13T15:56:58.254Z,59.60
2019-05-13T16:01:52.498Z,56.90
2019-05-13T16:06:41.789Z,54.20
2019-05-13T16:11:26.897Z,54.80
2019-05-13T16:16:12.376Z,58.40
2019-05-13T16:20:57.333Z,58.90
2019-05-13T16:25:44.633Z,58.70
2019-05-13T16:30:33.746Z,59.70
2019-05-13T16:35:21.779Z,61.00
2019-05-13T16:40:07.667Z,62.40
2019-05-13T16:44:52.853Z,65.60
2019-05-13T16:49:40.989Z,63.80
2019-05-13T16:54:25.914Z,68.30
2019-05-13T16:59:10.926Z,65.60
2019-05-13T17:03:55.780Z,66.10
2019-05-13T17:08:55.032Z,64.70
2019-05-13T17:13:43.184Z,66.10
2019-05-13T17:18:32.484Z,62.60
2019-05-13T17:23:18.058Z,62.10
2019-05-13T17:28:06.207Z,62.20
2019-05-13T17:32:54.290Z,63.10
2019-05-13T17:37:42.228Z,63.40
2019-05-13T17:42:27.598Z,65.40
2019-05-13T17:47:13.431Z,64.00
2019-05-13T17:52:04.410Z,65.00
2019-05-13T17:56:53.553Z,66.90
2019-05-13T18:01:41.258Z,71.20
2019-05-13T18:06:27.630Z,69.90
2019-05-13T18:11:13.261Z,69.00
2019-05-13T18:15:59.065Z,69.60
2019-05-13T18:20:45.158Z,69.60
2019-05-13T18:25:36.173Z,70.30
2019-05-13T18:30:22.115Z,72.40
2019-05-13T18:35:07.651Z,73.40
2019-05-13T18:39:53.187Z,75.90
2019-05-13T18:44:38.451Z,79.00
2019-05-13T18:49:24.025Z,87.30
2019-05-13T18:54:11.694Z,82.60
2019-05-13T18:58:56.417Z,87.20
2019-05-13T19:03:41.975Z,86.80
2019-05-13T19:08:27.116Z,89.50
2019-05-13T19:13:12.769Z,88.20
2019-05-13T19:17:58.043Z,92.10
2019-05-13T19:22:43.290Z,92.90
2019-05-13T19:27:28.398Z,92.90
2019-05-13T19:32:13.243Z,98.10
2019-05-13T19:36:58.646Z,96.90
2019-05-13T19:41:43.631Z,99.30
2019-05-13T19:46:28.554Z,99.90
2019-05-13T19:51:13.689Z,99.90
2019-05-13T19:56:27.629Z,99.90
2019-05-13T20:01:38.284Z,99.90
2019-05-13T20:06:34.728Z,99.90
2019-05-13T20:16:48.673Z,99.90
2019-05-13T20:21:36.249Z,99.90
2019-05-13T20:26:32.133Z,99.90
2019-05-13T20:31:32.054Z,99.90
2019-05-13T20:36:22.101Z,99.90
2019-05-13T20:41:12.187Z,99.90
2019-05-13T20:46:03.868Z,99.90
2019-05-13T20:50:53.335Z,99.90
2019-05-13T20:56:03.493Z,99.90
2019-05-13T21:01:07.788Z,99.90
2019-05-13T21:05:53.960Z,99.90
2019-05-13T21:10:41.976Z,99.90
2019-05-13T21:15:51.910Z,99.90
2019-05-13T21:20:59.541Z,99.90
2019-05-13T21:25:54.366Z,99.90
2019-05-13T21:30:54.639Z,99.90
2019-05-13T21:35:57.060Z,99.90
2019-05-13T21:40:44.701Z,99.90
2019-05-13T21:45:41.083Z,99.90
2019-05-13T21:50:36.893Z,99.90
2019-05-13T22:00:52.823Z,99.90
2019-05-13T22:05:52.866Z,99.90
2019-05-13T22:10:46.176Z,99.90
2019-05-13T22:15:43.099Z,99.90
2019-05-13T22:20:53.576Z,99.90
2019-05-13T22:25:31.563Z,99.90
2019-05-13T22:30:19.475Z,99.90
2019-05-13T22:35:18.229Z,99.90
2019-05-13T22:40:21.936Z,99.90
2019-05-13T22:45:21.772Z,99.90
2019-05-13T22:50:16.224Z,99.90
2019-05-13T22:55:18.181Z,99.90
2019-05-13T23:00:06.527Z,99.90
2019-05-13T23:05:15.465Z,99.90
2019-05-13T23:10:11.806Z,99.90
2019-05-13T23:15:05.243Z,99.90
2019-05-13T23:20:06.137Z,99.90
2019-05-13T23:24:57.665Z,99.90
2019-05-13T23:29:48.493Z,99.90
2019-05-13T23:34:44.609Z,99.90
2019-05-13T23:39:41.525Z,99.90
2019-05-13T23:44:33.475Z,99.90
2019-05-13T23:49:58.685Z,99.90
2019-05-13T23:55:41.580Z,99.90
